Time;durP1;ratioP1;P1;durP2;ratioP2;P2;SDS_P1;SDS_P2;PMS_P1;PMS_P2;Temp;Humidity;BMP_temperature;BMP_pressure;BME280_temperature;BME280_humidity;BME280_pressure;Samples;Min_cycle;Max_cycle;Signal;HPM_P1;HPM_P2
2022/01/05 00:00:45;;;;;;;5.72;4.10;;;6.90;99.90;;;;;;5114135;28;20479;-66
2022/01/05 00:03:11;;;;;;;5.35;3.75;;;6.90;99.90;;;;;;5125328;27;20031;-66
2022/01/05 00:05:37;;;;;;;5.10;3.47;;;7.00;99.90;;;;;;5136873;27;20254;-66
2022/01/05 00:08:04;;;;;;;4.75;3.80;;;6.90;99.90;;;;;;5135936;27;20168;-65
2022/01/05 00:10:29;;;;;;;5.45;3.97;;;7.00;99.90;;;;;;5134752;27;20023;-65
2022/01/05 00:12:55;;;;;;;5.75;4.57;;;7.00;99.90;;;;;;5136320;27;20099;-66
2022/01/05 00:15:21;;;;;;;5.22;4.57;;;7.10;99.90;;;;;;5134979;27;20033;-65
2022/01/05 00:17:47;;;;;;;6.00;4.55;;;7.00;99.90;;;;;;5135608;27;20111;-65
2022/01/05 00:20:13;;;;;;;5.65;5.07;;;7.00;99.90;;;;;;5133652;27;20111;-67
2022/01/05 00:22:38;;;;;;;8.82;6.53;;;7.00;99.90;;;;;;5133376;27;20061;-65
2022/01/05 00:25:05;;;;;;;6.75;5.15;;;7.00;99.90;;;;;;5133968;27;20460;-67
2022/01/05 00:27:31;;;;;;;8.80;6.15;;;7.00;99.90;;;;;;5133390;27;20029;-65
2022/01/05 00:29:58;;;;;;;10.10;5.68;;;7.00;99.90;;;;;;5135604;27;20015;-67
2022/01/05 00:32:24;;;;;;;8.10;5.78;;;6.90;99.90;;;;;;5133208;27;20084;-66
2022/01/05 00:34:49;;;;;;;7.07;5.60;;;7.00;99.90;;;;;;5135333;27;20106;-66
2022/01/05 00:37:16;;;;;;;6.10;5.43;;;7.00;99.90;;;;;;5134802;27;20106;-68
2022/01/05 00:39:41;;;;;;;6.38;5.22;;;7.00;99.90;;;;;;5133988;27;20023;-65
2022/01/05 00:42:07;;;;;;;5.40;4.72;;;7.00;99.90;;;;;;5133657;27;20111;-65
2022/01/05 00:44:33;;;;;;;6.90;5.78;;;7.10;99.90;;;;;;5134438;27;20023;-66
2022/01/05 00:46:59;;;;;;;8.68;5.55;;;7.10;99.90;;;;;;5133511;27;20023;-67
2022/01/05 00:49:24;;;;;;;5.13;4.63;;;7.00;99.90;;;;;;5133922;27;20076;-66
2022/01/05 00:51:50;;;;;;;6.45;5.25;;;6.90;99.90;;;;;;5135015;27;20027;-66
2022/01/05 00:54:16;;;;;;;6.55;4.70;;;7.00;99.90;;;;;;5134574;27;20102;-67
2022/01/05 00:56:42;;;;;;;6.78;4.35;;;7.00;99.90;;;;;;5135078;27;20034;-66
2022/01/05 00:59:07;;;;;;;5.90;4.20;;;7.00;99.90;;;;;;5134289;27;20444;-66
2022/01/05 01:01:33;;;;;;;7.40;4.43;;;6.90;99.90;;;;;;5132759;27;20062;-67
2022/01/05 01:03:59;;;;;;;6.15;4.32;;;7.00;99.90;;;;;;5135385;27;20024;-67
2022/01/05 01:06:25;;;;;;;6.65;4.60;;;7.00;99.90;;;;;;5135436;27;20027;-67
2022/01/05 01:08:51;;;;;;;5.97;4.78;;;7.10;99.90;;;;;;5135196;27;20540;-65
2022/01/05 01:11:16;;;;;;;5.70;4.60;;;7.00;99.90;;;;;;5135087;27;20075;-66
2022/01/05 01:13:43;;;;;;;6.55;4.93;;;7.00;99.90;;;;;;5136338;27;20031;-65
2022/01/05 01:16:09;;;;;;;5.63;5.05;;;6.90;99.90;;;;;;5134497;27;20023;-66
2022/01/05 01:18:35;;;;;;;6.32;4.55;;;6.90;99.90;;;;;;5132565;27;20030;-67
2022/01/05 01:21:02;;;;;;;6.25;5.18;;;6.80;99.90;;;;;;5133999;27;20043;-67
2022/01/05 01:23:28;;;;;;;7.78;4.68;;;6.90;99.90;;;;;;5133974;27;20108;-66
2022/01/05 01:25:53;;;;;;;5.78;4.63;;;6.90;99.90;;;;;;5134533;27;20045;-65
2022/01/05 01:28:21;;;;;;;4.90;4.40;;;6.90;99.90;;;;;;5131945;27;20106;-66
2022/01/05 01:30:47;;;;;;;6.22;5.50;;;6.90;99.90;;;;;;5134107;27;20084;-67
2022/01/05 01:33:16;;;;;;;6.10;4.65;;;6.90;99.90;;;;;;5134045;27;20098;-66
2022/01/05 01:35:41;;;;;;;5.38;4.35;;;6.80;99.90;;;;;;5132433;27;20023;-65
2022/01/05 01:38:07;;;;;;;5.03;3.72;;;6.90;99.90;;;;;;5134059;27;20178;-66
2022/01/05 01:40:33;;;;;;;7.15;4.90;;;6.90;99.90;;;;;;5134133;27;20079;-68
2022/01/05 01:42:59;;;;;;;5.68;4.70;;;6.90;99.90;;;;;;5133683;27;20464;-67
2022/01/05 01:45:25;;;;;;;5.13;4.40;;;6.80;99.90;;;;;;5134803;27;20102;-66
2022/01/05 01:47:51;;;;;;;6.15;4.55;;;6.90;99.90;;;;;;5134205;27;20046;-66
2022/01/05 01:50:17;;;;;;;4.90;4.40;;;7.00;99.90;;;;;;5133992;27;20065;-67
2022/01/05 01:52:43;;;;;;;6.22;4.43;;;7.00;99.90;;;;;;5132225;27;20084;-65
2022/01/05 01:55:10;;;;;;;6.35;4.38;;;6.90;99.90;;;;;;5130600;27;20064;-67
2022/01/05 01:57:39;;;;;;;5.85;4.68;;;6.90;99.90;;;;;;5118282;27;20020;-63
2022/01/05 02:00:06;;;;;;;5.97;5.38;;;6.90;99.90;;;;;;5113822;28;20023;-66
2022/01/05 02:02:31;;;;;;;6.68;5.07;;;6.90;99.90;;;;;;5112473;28;20031;-65
2022/01/05 02:04:57;;;;;;;5.18;4.45;;;6.80;99.90;;;;;;5112178;28;20023;-68
2022/01/05 02:07:23;;;;;;;5.85;4.45;;;6.80;99.90;;;;;;5113774;28;20031;-68
2022/01/05 02:09:49;;;;;;;7.80;5.43;;;6.80;99.90;;;;;;5111826;28;20085;-66
2022/01/05 02:12:15;;;;;;;7.03;4.75;;;6.80;99.90;;;;;;5112823;28;20409;-65
2022/01/05 02:14:40;;;;;;;5.65;4.65;;;6.80;99.90;;;;;;5112286;28;20030;-66
2022/01/05 02:17:18;;;;;;;6.00;4.50;;;6.80;99.90;;;;;;5112356;28;20024;-66
2022/01/05 02:19:43;;;;;;;6.45;4.30;;;6.80;99.90;;;;;;5112062;28;20032;-64
2022/01/05 02:22:09;;;;;;;4.68;4.15;;;6.90;99.90;;;;;;5112211;28;20334;-66
2022/01/05 02:24:35;;;;;;;4.28;3.85;;;6.80;99.90;;;;;;5111203;28;20382;-65
2022/01/05 02:27:01;;;;;;;4.55;3.33;;;6.90;99.90;;;;;;5111117;28;20034;-66
2022/01/05 02:29:27;;;;;;;5.15;2.95;;;6.90;99.90;;;;;;5111917;28;20024;-65
2022/01/05 02:31:52;;;;;;;3.78;2.97;;;6.90;99.90;;;;;;5111044;28;20055;-65
2022/01/05 02:34:18;;;;;;;4.90;2.33;;;6.90;99.90;;;;;;5112664;28;20115;-67
2022/01/05 02:36:44;;;;;;;1.25;0.73;;;6.90;99.90;;;;;;5111977;28;20448;-66
2022/01/05 02:39:10;;;;;;;0.60;0.40;;;6.60;99.90;;;;;;5112909;28;20127;-67
2022/01/05 02:41:36;;;;;;;0.65;0.20;;;6.50;99.90;;;;;;5113088;28;20027;-68
2022/01/05 02:44:01;;;;;;;0.65;0.10;;;6.40;99.90;;;;;;5112837;28;20401;-66
2022/01/05 02:46:27;;;;;;;0.65;0.30;;;6.10;99.90;;;;;;5110918;28;20483;-66
2022/01/05 02:48:54;;;;;;;1.63;0.10;;;6.10;99.90;;;;;;5111315;28;20024;-67
2022/01/05 02:51:21;;;;;;;0.80;0.00;;;6.10;99.90;;;;;;5111205;28;20030;-66
2022/01/05 02:53:47;;;;;;;0.20;0.10;;;6.00;99.90;;;;;;5109880;28;20039;-65
2022/01/05 02:56:13;;;;;;;0.35;0.00;;;6.10;99.90;;;;;;5110885;28;20051;-65
2022/01/05 02:58:39;;;;;;;0.73;0.17;;;6.10;99.90;;;;;;5111816;28;20102;-65
2022/01/05 03:01:05;;;;;;;0.20;0.20;;;6.10;99.90;;;;;;5112296;28;20492;-66
2022/01/05 03:03:31;;;;;;;2.58;0.30;;;5.90;99.90;;;;;;5112607;28;20043;-67
2022/01/05 03:05:57;;;;;;;0.40;0.10;;;5.80;99.90;;;;;;5113503;28;20028;-65
2022/01/05 03:08:23;;;;;;;0.50;0.10;;;5.60;99.90;;;;;;5112710;28;20565;-66
2022/01/05 03:10:49;;;;;;;0.20;0.17;;;5.60;99.90;;;;;;5110318;28;20052;-66
2022/01/05 03:13:14;;;;;;;0.13;0.10;;;5.70;99.90;;;;;;5112103;28;20115;-66
2022/01/05 03:15:40;;;;;;;1.05;0.35;;;5.80;99.90;;;;;;5111270;28;20028;-67
2022/01/05 03:18:06;;;;;;;0.77;0.28;;;5.90;99.90;;;;;;5110842;28;20023;-68
2022/01/05 03:20:34;;;;;;;0.20;0.17;;;5.80;99.90;;;;;;5111441;28;20446;-69
2022/01/05 03:23:01;;;;;;;0.88;0.10;;;5.80;99.90;;;;;;5111405;28;20468;-66
2022/01/05 03:25:27;;;;;;;0.30;0.20;;;5.60;99.90;;;;;;5113154;28;20457;-67
2022/01/05 03:27:54;;;;;;;0.80;0.40;;;5.70;99.90;;;;;;5114667;28;20415;-69
2022/01/05 03:30:22;;;;;;;0.43;0.20;;;5.70;99.90;;;;;;5114131;28;20059;-68
2022/01/05 03:35:17;;;;;;;1.15;0.57;;;5.70;99.90;;;;;;5112501;28;20031;-66
2022/01/05 03:37:43;;;;;;;1.58;0.65;;;5.50;99.90;;;;;;5115442;28;20031;-66
2022/01/05 03:40:09;;;;;;;1.10;0.38;;;5.30;99.90;;;;;;5116069;28;20020;-67
2022/01/05 03:42:35;;;;;;;1.27;0.20;;;5.40;99.90;;;;;;5115926;28;20124;-66
2022/01/05 03:45:01;;;;;;;0.70;0.28;;;5.30;99.90;;;;;;5115190;28;20394;-66
2022/01/05 03:47:27;;;;;;;1.65;0.30;;;5.40;99.90;;;;;;5114822;28;20024;-65
2022/01/05 03:49:52;;;;;;;1.30;0.28;;;5.30;99.90;;;;;;5115453;28;20068;-67
2022/01/05 03:52:18;;;;;;;3.40;0.30;;;5.50;99.90;;;;;;5114384;28;20039;-67
2022/01/05 03:54:44;;;;;;;2.20;0.40;;;5.40;99.90;;;;;;5115306;28;20047;-65
2022/01/05 03:57:10;;;;;;;1.08;0.30;;;5.30;99.90;;;;;;5116306;28;20059;-67
2022/01/05 03:59:35;;;;;;;2.15;0.73;;;5.30;99.90;;;;;;5115284;28;20126;-65
2022/01/05 04:02:01;;;;;;;0.60;0.20;;;5.40;99.90;;;;;;5115902;28;20495;-65
2022/01/05 04:04:27;;;;;;;0.82;0.40;;;5.30;99.90;;;;;;5115409;28;20035;-67
2022/01/05 04:06:53;;;;;;;1.33;0.30;;;5.40;99.90;;;;;;5114108;28;20020;-66
2022/01/05 04:09:18;;;;;;;1.95;0.40;;;5.50;99.90;;;;;;5115994;28;20365;-71
2022/01/05 04:11:44;;;;;;;1.27;0.35;;;5.50;99.90;;;;;;5115295;28;20027;-68
2022/01/05 04:14:10;;;;;;;0.55;0.28;;;5.50;99.90;;;;;;5115764;28;20034;-67
2022/01/05 04:16:36;;;;;;;0.93;0.30;;;5.50;99.90;;;;;;5116548;28;20065;-68
2022/01/05 04:19:02;;;;;;;0.85;0.47;;;5.60;99.90;;;;;;5115809;28;20026;-66
2022/01/05 04:21:27;;;;;;;1.13;0.30;;;5.60;99.90;;;;;;5115067;28;20537;-66
2022/01/05 04:23:53;;;;;;;5.45;0.45;;;5.70;99.90;;;;;;5114471;28;20046;-65
2022/01/05 04:26:19;;;;;;;1.42;0.40;;;5.70;99.90;;;;;;5113593;28;20425;-66
2022/01/05 04:28:44;;;;;;;3.42;0.60;;;5.60;99.90;;;;;;5113699;28;20027;-67
2022/01/05 04:31:10;;;;;;;4.38;0.68;;;5.60;99.90;;;;;;5114000;28;20540;-67
2022/01/05 04:33:36;;;;;;;2.40;0.57;;;5.60;99.90;;;;;;5115617;28;20055;-66
2022/01/05 04:36:02;;;;;;;1.75;0.60;;;5.70;99.90;;;;;;5114812;28;20154;-66
2022/01/05 04:38:27;;;;;;;7.38;0.93;;;5.70;99.90;;;;;;5114643;28;20065;-67
2022/01/05 04:40:54;;;;;;;4.05;0.63;;;5.70;99.90;;;;;;5114294;28;20024;-65
2022/01/05 04:43:20;;;;;;;4.82;0.52;;;5.60;99.90;;;;;;5114543;28;20449;-65
2022/01/05 04:45:47;;;;;;;2.20;0.50;;;5.50;99.90;;;;;;5114882;28;20069;-65
2022/01/05 04:48:13;;;;;;;2.30;0.47;;;5.60;99.90;;;;;;5115877;28;20049;-68
2022/01/05 04:50:39;;;;;;;1.50;0.60;;;5.50;99.90;;;;;;5112433;28;20062;-65
2022/01/05 04:53:05;;;;;;;2.67;0.65;;;5.50;99.90;;;;;;5114570;28;20334;-67
2022/01/05 04:55:31;;;;;;;1.95;0.30;;;5.60;99.90;;;;;;5113346;28;20032;-69
2022/01/05 04:57:57;;;;;;;3.03;0.60;;;5.50;99.90;;;;;;5115527;28;20345;-65
2022/01/05 05:00:22;;;;;;;10.05;2.17;;;5.40;99.90;;;;;;5114533;28;20024;-66
2022/01/05 05:02:48;;;;;;;8.95;1.08;;;5.40;99.90;;;;;;5112375;28;20119;-66
2022/01/05 05:05:14;;;;;;;3.40;1.58;;;5.40;99.90;;;;;;5112908;28;20475;-66
2022/01/05 05:07:40;;;;;;;6.65;2.03;;;5.40;99.90;;;;;;5112243;28;20030;-64
2022/01/05 05:10:06;;;;;;;4.88;1.70;;;5.40;99.90;;;;;;5113868;28;20024;-67
2022/01/05 05:12:32;;;;;;;9.27;2.00;;;5.30;99.90;;;;;;5113674;28;20076;-68
2022/01/05 05:14:58;;;;;;;2.85;2.63;;;5.30;99.90;;;;;;5113990;28;20031;-66
2022/01/05 05:17:24;;;;;;;6.38;2.80;;;5.30;99.90;;;;;;5113940;28;20449;-66
2022/01/05 05:19:49;;;;;;;7.53;1.60;;;5.10;99.90;;;;;;5112833;28;20058;-65
2022/01/05 05:22:15;;;;;;;6.53;2.40;;;5.30;99.90;;;;;;5113531;28;20043;-64
2022/01/05 05:24:40;;;;;;;6.57;2.03;;;5.30;99.90;;;;;;5112933;28;20023;-64
2022/01/05 05:27:06;;;;;;;3.85;1.63;;;5.40;99.90;;;;;;5113403;28;20028;-65
2022/01/05 05:29:32;;;;;;;3.83;1.85;;;5.30;99.90;;;;;;5112334;28;20016;-65
2022/01/05 05:31:57;;;;;;;8.00;2.63;;;5.30;99.90;;;;;;5111598;28;20393;-65
2022/01/05 05:34:25;;;;;;;4.72;2.10;;;5.10;99.90;;;;;;5113495;28;20031;-66
2022/01/05 05:36:50;;;;;;;3.90;1.60;;;5.20;99.90;;;;;;5113031;28;20034;-65
2022/01/05 05:39:16;;;;;;;8.70;2.00;;;5.10;99.90;;;;;;5113753;28;20102;-66
2022/01/05 05:41:41;;;;;;;5.35;2.03;;;5.10;99.90;;;;;;5111792;28;20440;-66
2022/01/05 05:44:07;;;;;;;5.75;1.88;;;5.20;99.90;;;;;;5113290;28;20179;-67
2022/01/05 05:46:34;;;;;;;4.80;2.22;;;5.10;99.90;;;;;;5113360;28;20107;-66
2022/01/05 05:49:00;;;;;;;5.63;1.95;;;5.10;99.90;;;;;;5114757;28;20024;-67
2022/01/05 05:51:25;;;;;;;7.95;2.17;;;5.10;99.90;;;;;;5113562;28;20068;-66
2022/01/05 05:53:51;;;;;;;5.05;3.00;;;5.10;99.90;;;;;;5112739;28;20043;-65
2022/01/05 05:56:17;;;;;;;4.70;1.75;;;5.10;99.90;;;;;;5113725;28;20103;-65
2022/01/05 05:58:42;;;;;;;8.02;2.15;;;5.00;99.90;;;;;;5112683;28;20035;-65
2022/01/05 06:01:08;;;;;;;5.50;1.80;;;4.90;99.90;;;;;;5112512;28;20027;-65
2022/01/05 06:03:34;;;;;;;6.90;1.42;;;4.80;99.90;;;;;;5111978;28;20046;-66
2022/01/05 06:06:02;;;;;;;10.95;1.98;;;4.70;99.90;;;;;;5113430;28;20031;-69
2022/01/05 06:08:28;;;;;;;3.92;1.52;;;4.80;99.90;;;;;;5113486;28;20024;-66
2022/01/05 06:10:54;;;;;;;5.85;2.38;;;4.80;99.90;;;;;;5112370;28;20016;-65
2022/01/05 06:13:19;;;;;;;9.63;1.45;;;4.80;99.90;;;;;;5112979;27;20036;-64
2022/01/05 06:15:45;;;;;;;9.52;2.58;;;4.80;99.90;;;;;;5111012;28;20101;-67
2022/01/05 06:18:11;;;;;;;8.27;3.72;;;4.80;99.90;;;;;;5113132;28;20024;-66
2022/01/05 06:20:36;;;;;;;6.38;1.40;;;4.70;99.90;;;;;;5112153;28;20050;-68
2022/01/05 06:23:02;;;;;;;9.57;2.20;;;4.70;99.90;;;;;;5113187;28;20457;-66
2022/01/05 06:25:28;;;;;;;8.85;1.77;;;4.60;99.90;;;;;;5113087;28;20400;-70
2022/01/05 06:27:53;;;;;;;7.82;1.85;;;4.70;99.90;;;;;;5111315;28;20035;-66
2022/01/05 06:30:19;;;;;;;4.75;2.42;;;4.70;99.90;;;;;;5112536;28;20143;-69
2022/01/05 06:32:46;;;;;;;6.13;2.15;;;4.70;99.90;;;;;;5112007;28;20023;-64
2022/01/05 06:35:13;;;;;;;8.55;1.42;;;4.70;99.90;;;;;;5111919;28;20031;-65
2022/01/05 06:37:40;;;;;;;6.00;1.52;;;4.60;99.90;;;;;;5112269;28;20024;-67
2022/01/05 06:40:07;;;;;;;4.25;1.40;;;4.60;99.90;;;;;;5113490;28;20028;-66
2022/01/05 06:42:33;;;;;;;3.95;1.23;;;4.70;99.90;;;;;;5113330;28;20469;-66
2022/01/05 06:44:58;;;;;;;5.43;1.20;;;4.60;99.90;;;;;;5112934;28;20032;-68
2022/01/05 06:47:24;;;;;;;4.60;1.13;;;4.60;99.90;;;;;;5115564;28;20024;-68
2022/01/05 06:49:50;;;;;;;4.32;1.27;;;4.60;99.90;;;;;;5113447;28;20026;-65
2022/01/05 06:52:15;;;;;;;5.18;1.63;;;4.50;99.90;;;;;;5112954;28;20039;-68
2022/01/05 06:54:41;;;;;;;4.20;1.23;;;4.50;99.90;;;;;;5112199;28;20361;-67
2022/01/05 06:57:08;;;;;;;7.90;1.80;;;4.40;99.90;;;;;;5113018;28;20035;-66
2022/01/05 06:59:35;;;;;;;8.27;1.70;;;4.50;99.90;;;;;;5113019;28;20124;-67
2022/01/05 07:02:00;;;;;;;8.80;1.35;;;4.40;99.90;;;;;;5111710;28;20516;-67
2022/01/05 07:04:26;;;;;;;5.75;1.25;;;4.40;99.90;;;;;;5112672;28;20024;-67
2022/01/05 07:06:52;;;;;;;8.07;1.58;;;4.40;99.90;;;;;;5111942;28;20072;-65
2022/01/05 07:09:17;;;;;;;7.70;1.92;;;4.40;99.90;;;;;;5111155;28;20034;-68
2022/01/05 07:11:43;;;;;;;3.55;1.05;;;4.40;99.90;;;;;;5114212;28;20073;-66
2022/01/05 07:14:09;;;;;;;7.13;1.20;;;4.40;99.90;;;;;;5116435;28;20024;-67
2022/01/05 07:16:34;;;;;;;4.75;1.30;;;4.40;99.90;;;;;;5115070;28;20028;-66
2022/01/05 07:19:01;;;;;;;9.95;1.60;;;4.50;99.90;;;;;;5116241;28;20429;-67
2022/01/05 07:21:26;;;;;;;7.95;1.30;;;4.40;99.90;;;;;;5117420;28;20468;-67
2022/01/05 07:23:52;;;;;;;5.05;1.40;;;4.30;99.90;;;;;;5116422;28;20046;-67
2022/01/05 07:26:18;;;;;;;4.43;1.35;;;4.20;99.90;;;;;;5117221;28;20491;-66
2022/01/05 07:28:44;;;;;;;8.23;1.30;;;4.40;99.90;;;;;;5115558;28;20028;-66
2022/01/05 07:31:10;;;;;;;6.78;2.15;;;4.40;99.90;;;;;;5116340;27;20024;-65
2022/01/05 07:33:36;;;;;;;4.05;1.40;;;4.40;99.90;;;;;;5114761;28;20036;-65
2022/01/05 07:36:02;;;;;;;4.20;1.13;;;4.40;99.90;;;;;;5115602;28;20032;-66
2022/01/05 07:38:30;;;;;;;8.20;1.63;;;4.30;99.90;;;;;;5116039;28;20031;-67
2022/01/05 07:40:56;;;;;;;6.60;1.58;;;4.30;99.90;;;;;;5114099;28;20024;-64
2022/01/05 07:43:22;;;;;;;5.20;1.23;;;4.10;99.90;;;;;;5114629;28;20038;-67
2022/01/05 07:45:49;;;;;;;5.28;2.10;;;4.10;99.90;;;;;;5115540;28;20118;-66
2022/01/05 07:48:14;;;;;;;5.95;1.92;;;4.20;99.90;;;;;;5116016;28;20057;-67
2022/01/05 07:50:40;;;;;;;7.75;1.88;;;4.00;99.90;;;;;;5115818;28;20038;-67
2022/01/05 07:53:06;;;;;;;3.92;1.30;;;4.20;99.90;;;;;;5113823;28;20063;-65
2022/01/05 07:55:32;;;;;;;7.28;1.55;;;4.00;99.90;;;;;;5115601;28;20020;-67
2022/01/05 07:58:01;;;;;;;6.32;1.40;;;4.10;99.90;;;;;;5114932;28;20180;-67
2022/01/05 08:00:27;;;;;;;4.57;1.77;;;4.20;99.90;;;;;;5115370;28;20079;-67
2022/01/05 08:02:53;;;;;;;4.45;1.15;;;4.30;99.90;;;;;;5115109;28;20115;-65
2022/01/05 08:05:19;;;;;;;3.13;0.93;;;4.40;99.90;;;;;;5114171;28;20509;-66
2022/01/05 08:07:45;;;;;;;9.10;1.30;;;4.40;99.90;;;;;;5114371;28;20019;-67
2022/01/05 08:10:11;;;;;;;5.80;1.10;;;4.50;99.90;;;;;;5114421;28;20027;-68
2022/01/05 08:12:37;;;;;;;8.07;1.08;;;4.50;99.90;;;;;;5114107;28;20436;-66
2022/01/05 08:15:03;;;;;;;8.98;2.65;;;5.00;99.90;;;;;;5114816;28;20024;-66
2022/01/05 08:17:28;;;;;;;6.05;1.30;;;6.00;99.90;;;;;;5114990;28;20035;-66
2022/01/05 08:19:54;;;;;;;3.70;1.05;;;6.90;99.90;;;;;;5112663;28;20412;-67
2022/01/05 08:22:20;;;;;;;5.28;1.30;;;7.70;99.90;;;;;;5113989;28;20396;-66
2022/01/05 08:24:45;;;;;;;5.50;1.33;;;8.00;99.00;;;;;;5113274;28;20081;-67
2022/01/05 08:27:11;;;;;;;10.50;1.75;;;8.50;97.40;;;;;;5115048;28;20043;-67
2022/01/05 08:29:37;;;;;;;8.32;1.25;;;8.60;96.70;;;;;;5114056;28;20030;-71
2022/01/05 08:32:04;;;;;;;4.90;1.40;;;9.20;95.40;;;;;;5116576;27;20026;-68
2022/01/05 08:34:30;;;;;;;7.13;1.98;;;9.30;94.40;;;;;;5117258;28;20023;-67
2022/01/05 08:36:57;;;;;;;5.10;1.10;;;9.00;94.10;;;;;;5115099;28;20442;-67
2022/01/05 08:39:23;;;;;;;5.60;1.25;;;9.00;94.60;;;;;;5115074;28;20019;-66
2022/01/05 08:41:50;;;;;;;6.47;1.48;;;9.10;94.60;;;;;;5114597;28;20102;-66
2022/01/05 08:44:16;;;;;;;5.80;1.25;;;9.00;94.30;;;;;;5114542;28;19911;-68
2022/01/05 08:46:41;;;;;;;8.30;2.08;;;8.90;93.80;;;;;;5113482;28;20077;-65
2022/01/05 08:49:07;;;;;;;6.72;1.30;;;8.80;94.50;;;;;;5114222;28;20457;-66
2022/01/05 08:51:33;;;;;;;9.88;1.63;;;9.20;93.90;;;;;;5113355;28;20084;-66
2022/01/05 08:53:58;;;;;;;6.32;1.25;;;10.00;93.10;;;;;;5113552;28;20549;-67
2022/01/05 08:56:25;;;;;;;4.63;1.25;;;10.80;91.10;;;;;;5113636;28;20031;-69
2022/01/05 08:58:51;;;;;;;3.60;1.00;;;11.40;90.60;;;;;;5114040;28;20030;-65
2022/01/05 09:01:17;;;;;;;4.40;1.15;;;11.60;88.10;;;;;;5115460;28;20028;-69
2022/01/05 09:03:43;;;;;;;3.83;1.08;;;11.80;81.90;;;;;;5115061;28;20032;-69
2022/01/05 09:06:09;;;;;;;11.48;2.20;;;11.60;83.40;;;;;;5114254;28;20028;-66
2022/01/05 09:08:35;;;;;;;8.68;1.70;;;11.10;81.70;;;;;;5114412;28;20051;-65
2022/01/05 09:11:02;;;;;;;7.25;1.45;;;10.70;83.40;;;;;;5113334;28;20062;-65
2022/01/05 09:13:28;;;;;;;13.25;2.03;;;10.80;87.20;;;;;;5113898;28;20096;-66
2022/01/05 09:15:54;;;;;;;5.13;1.63;;;11.50;86.90;;;;;;5113424;28;20019;-66
2022/01/05 09:18:20;;;;;;;4.30;1.13;;;12.10;87.30;;;;;;5113583;28;20042;-67
2022/01/05 09:20:46;;;;;;;8.25;1.63;;;11.70;82.90;;;;;;5113557;28;20144;-66
2022/01/05 09:23:12;;;;;;;14.23;1.35;;;11.80;83.50;;;;;;5113791;28;20126;-66
2022/01/05 09:25:38;;;;;;;5.35;1.30;;;11.70;82.50;;;;;;5113650;28;20059;-65
2022/01/05 09:28:04;;;;;;;4.10;1.20;;;11.10;82.80;;;;;;5111775;28;20030;-64
2022/01/05 09:30:30;;;;;;;5.45;1.20;;;10.90;84.70;;;;;;5116520;27;20020;-66
2022/01/05 09:32:58;;;;;;;6.57;1.63;;;10.40;84.40;;;;;;5123839;27;20084;-66
2022/01/05 09:35:25;;;;;;;4.65;1.42;;;9.50;87.20;;;;;;5113520;28;20020;-65
2022/01/05 09:41:56;;;;;;;9.38;2.05;;;8.40;91.30;;;;;;5111142;28;20020;-67
2022/01/05 09:43:22;;;;;;;9.60;2.15;;;7.30;95.40;;;;;;5119298;27;20097;-66
2022/01/05 09:46:07;;;;;;;6.43;1.70;;;6.90;97.20;;;;;;5132120;27;20038;-70
2022/01/05 09:49:12;;;;;;;5.13;1.67;;;6.40;98.70;;;;;;5132995;27;20388;-66
2022/01/05 09:51:41;;;;;;;11.18;2.05;;;6.50;99.90;;;;;;5078115;27;20373;-66
2022/01/05 09:54:08;;;;;;;6.93;1.75;;;6.40;99.80;;;;;;5123518;27;20346;-68
2022/01/05 09:56:35;;;;;;;8.30;1.65;;;6.10;99.90;;;;;;5117720;27;20112;-67
2022/01/05 09:59:02;;;;;;;8.77;2.03;;;5.90;99.90;;;;;;5115467;28;20031;-67
2022/01/05 10:01:33;;;;;;;7.43;1.80;;;5.90;99.90;;;;;;5116505;27;20024;-67
2022/01/05 10:04:00;;;;;;;10.25;1.77;;;5.50;99.90;;;;;;5123425;27;20031;-67
2022/01/05 10:06:26;;;;;;;9.93;2.00;;;5.60;99.90;;;;;;5134837;27;20039;-67
2022/01/05 10:08:51;;;;;;;9.23;2.17;;;5.60;99.90;;;;;;5115058;27;20118;-67
2022/01/05 10:11:20;;;;;;;9.23;1.85;;;5.50;99.90;;;;;;5113464;28;20395;-67
2022/01/05 10:13:46;;;;;;;7.85;1.60;;;5.30;99.90;;;;;;5114015;28;20023;-67
2022/01/05 10:16:12;;;;;;;5.93;1.75;;;5.10;99.90;;;;;;5111933;28;20113;-67
2022/01/05 10:18:44;;;;;;;6.05;2.60;;;4.80;99.90;;;;;;5112213;28;20514;-65
2022/01/05 10:21:14;;;;;;;8.57;1.55;;;4.80;99.90;;;;;;5112343;28;20054;-66
2022/01/05 10:23:48;;;;;;;7.03;2.28;;;4.80;99.90;;;;;;5114450;28;20039;-66
2022/01/05 10:26:41;;;;;;;5.85;1.45;;;5.00;99.90;;;;;;5112680;28;20386;-67
2022/01/05 10:29:20;;;;;;;7.72;2.20;;;5.10;99.90;;;;;;5109664;28;20122;-66
2022/01/05 10:31:54;;;;;;;7.18;1.67;;;5.10;99.90;;;;;;5114714;27;20417;-67
2022/01/05 10:34:25;;;;;;;11.68;3.00;;;5.00;99.90;;;;;;5130815;27;20100;-67
2022/01/05 10:36:55;;;;;;;7.78;1.50;;;5.00;99.90;;;;;;5126123;27;20020;-68
2022/01/05 10:39:38;;;;;;;4.07;1.63;;;4.90;99.90;;;;;;5114684;28;20039;-66
2022/01/05 10:42:14;;;;;;;7.18;1.92;;;5.00;99.90;;;;;;5111179;28;20024;-66
2022/01/05 10:44:41;;;;;;;5.30;1.95;;;5.10;99.90;;;;;;5111759;28;20032;-66
2022/01/05 10:47:07;;;;;;;8.18;1.90;;;5.10;99.90;;;;;;5128686;28;20030;-68
2022/01/05 10:49:35;;;;;;;11.00;1.85;;;5.20;99.90;;;;;;5129961;28;20015;-68
2022/01/05 10:52:23;;;;;;;6.95;2.03;;;5.00;99.90;;;;;;5132568;27;20027;-65
2022/01/05 10:54:50;;;;;;;12.00;1.70;;;5.30;99.90;;;;;;5091687;27;20031;-67
2022/01/05 10:57:17;;;;;;;5.00;2.40;;;6.60;99.90;;;;;;5131232;28;20031;-68
2022/01/05 10:59:55;;;;;;;5.65;2.80;;;5.70;99.90;;;;;;5132994;27;20038;-67
2022/01/05 11:02:25;;;;;;;6.13;1.80;;;5.50;99.90;;;;;;5133097;27;20357;-67
2022/01/05 11:04:55;;;;;;;7.95;1.52;;;5.30;99.90;;;;;;5120090;28;20554;-67
2022/01/05 11:07:23;;;;;;;6.95;2.88;;;5.00;99.90;;;;;;5117513;28;20039;-68
2022/01/05 11:10:01;;;;;;;7.20;1.95;;;5.10;99.90;;;;;;5113241;28;20054;-68
2022/01/05 11:12:34;;;;;;;4.80;1.25;;;5.10;99.90;;;;;;5116141;28;20031;-67
2022/01/05 11:15:23;;;;;;;6.85;1.90;;;5.10;99.90;;;;;;5112988;28;20028;-67
2022/01/05 11:18:09;;;;;;;7.18;2.42;;;5.60;99.90;;;;;;5114584;28;20031;-68
2022/01/05 11:21:01;;;;;;;10.32;4.05;;;5.40;99.90;;;;;;5123924;28;20047;-66
2022/01/05 11:23:28;;;;;;;4.10;1.20;;;5.30;99.90;;;;;;5112414;28;20040;-68
2022/01/05 11:25:57;;;;;;;9.75;1.70;;;5.20;99.90;;;;;;5112439;28;20035;-70
2022/01/05 11:28:25;;;;;;;5.57;1.08;;;5.30;99.90;;;;;;5116616;28;20024;-67
2022/01/05 11:30:54;;;;;;;8.68;2.00;;;5.20;99.90;;;;;;5112283;28;20428;-68
2022/01/05 11:33:21;;;;;;;5.38;1.55;;;5.10;99.90;;;;;;5111436;28;20028;-68
2022/01/05 11:35:47;;;;;;;4.32;1.20;;;5.10;99.90;;;;;;5112733;28;20030;-68
2022/01/05 11:38:14;;;;;;;8.00;1.85;;;5.20;99.90;;;;;;5127865;28;20039;-68
2022/01/05 11:40:52;;;;;;;9.45;2.05;;;5.20;99.90;;;;;;5120178;27;20020;-67
2022/01/05 11:43:28;;;;;;;6.75;2.10;;;5.10;99.90;;;;;;5127791;28;20076;-65
2022/01/05 11:45:55;;;;;;;7.72;1.75;;;5.00;99.90;;;;;;5128731;27;20142;-65
2022/01/05 11:48:23;;;;;;;6.10;1.50;;;5.00;99.90;;;;;;5125880;28;20099;-65
2022/01/05 11:50:56;;;;;;;5.78;1.48;;;5.00;99.90;;;;;;5125006;27;20035;-67
2022/01/05 11:53:39;;;;;;;6.30;1.75;;;4.90;99.90;;;;;;5127208;28;20038;-66
2022/01/05 11:56:08;;;;;;;13.52;2.30;;;5.00;99.90;;;;;;5125664;27;20038;-69
2022/01/05 11:58:36;;;;;;;6.68;1.60;;;5.00;99.90;;;;;;5115752;28;20102;-68
2022/01/05 12:01:17;;;;;;;8.77;1.40;;;4.90;99.90;;;;;;5136218;27;20030;-66
2022/01/05 12:03:52;;;;;;;10.93;2.08;;;4.90;99.90;;;;;;5122328;27;20039;-66
2022/01/05 12:06:21;;;;;;;9.98;1.40;;;5.00;99.90;;;;;;5115654;27;20023;-66
2022/01/05 12:08:56;;;;;;;9.50;1.73;;;5.10;99.90;;;;;;5132511;27;20065;-66
2022/01/05 12:11:42;;;;;;;10.90;1.65;;;5.10;99.90;;;;;;5133100;27;20027;-67
2022/01/05 12:14:19;;;;;;;9.80;2.53;;;5.10;99.90;;;;;;5135727;27;20429;-66
2022/01/05 12:17:06;;;;;;;7.03;1.42;;;5.20;99.90;;;;;;5129599;27;20023;-72
2022/01/05 12:19:35;;;;;;;5.75;1.30;;;5.30;99.90;;;;;;5134559;27;20023;-64
2022/01/05 12:22:13;;;;;;;6.50;1.50;;;5.20;99.90;;;;;;5136708;27;20028;-66
2022/01/05 12:25:07;;;;;;;9.73;2.55;;;5.20;99.90;;;;;;5135230;27;20039;-65
2022/01/05 12:27:37;;;;;;;7.65;1.60;;;5.20;99.90;;;;;;5135787;27;20106;-68
2022/01/05 12:30:18;;;;;;;9.93;2.10;;;5.20;99.90;;;;;;5114414;28;20024;-66
2022/01/05 12:32:46;;;;;;;6.85;1.63;;;5.20;99.90;;;;;;5123295;27;20055;-77
2022/01/05 12:35:19;;;;;;;5.55;1.40;;;5.00;99.90;;;;;;5134201;27;20460;-67
2022/01/05 12:37:47;;;;;;;5.32;1.33;;;5.20;99.90;;;;;;5134794;27;20034;-68
2022/01/05 12:40:33;;;;;;;6.55;1.48;;;5.20;99.90;;;;;;5125858;27;20027;-66
2022/01/05 12:43:08;;;;;;;5.28;1.48;;;5.30;99.90;;;;;;5113185;28;20035;-70
2022/01/05 12:45:53;;;;;;;5.72;0.95;;;5.30;99.90;;;;;;5114610;27;20054;-67
2022/01/05 12:51:22;;;;;;;7.43;1.52;;;5.20;99.90;;;;;;5118559;27;20047;-67
2022/01/05 12:54:10;;;;;;;10.20;1.30;;;5.20;99.90;;;;;;5119794;27;20043;-68
2022/01/05 12:56:36;;;;;;;9.13;1.40;;;5.20;99.90;;;;;;5124303;27;20385;-66
2022/01/05 12:59:04;;;;;;;5.28;1.67;;;5.10;99.90;;;;;;5116831;27;20023;-67
2022/01/05 13:01:30;;;;;;;4.28;1.42;;;5.10;99.90;;;;;;5115072;27;20057;-65
2022/01/05 13:03:59;;;;;;;10.75;1.35;;;5.10;99.90;;;;;;5129878;27;20088;-66
2022/01/05 13:06:30;;;;;;;6.18;1.70;;;5.10;99.90;;;;;;5114847;28;20023;-67